Germann, AZ

11:01 PM MST on December 08, 2016 (GMT -0700)
Power Ranch - Vineyards | | Change Station

Elev 1325 ft 33.28 °N, 111.70 °W | Updated 31 seconds ago

Clear
Clear
46.4 °F
Feels Like 46 °F
N
0.0
Wind Variable Wind from South

Today
High -- | Low -- °F
--% Chance of Precip.
Yesterday
High -- | Low -- °F
Precip. -- in
Pressure 30.24 in
Visibility 20.0 miles
Clouds Clear
Windchill 46 °F
Dew Point 42 °F
Humidity 85%
Rainfall in
Snow Depth Not available.
7:18 AM 5:19 PM
Waxing Gibbous, 70% visible
METAR KIWA 090547Z 00000KT 20SM SKC 09/03 A3024
Pressure 30.24 in
Visibility 20.0 miles
Clouds Clear
Windchill 46 °F
Dew Point 42 °F
Humidity 85%
Rainfall in
Snow Depth Not available.
7:18 AM 5:19 PM
Waxing Gibbous, 70% visible
METAR KIWA 090547Z 00000KT 20SM SKC 09/03 A3024

10-Day Weather Forecast

Almanac

Astronomy

Dec. 08, 2016 Rise Set
Actual Time
Civil Twilight
Nautical Twilight
Astronomical Twilight
Moon
Length of Visible Light
Length of Day
Tomorrow will be .
, % of the Moon is Illuminated

Today's Extremes

State Highs State Lows

Community

WunderPhotos

Upload Photos

1,956,374 photos uploaded!

WunderBlog® & News

Nearby

Air Quality

  Air Quality AQ Index Pollutant
Not available.

Snow Depth

Station Depth Elevation

Earthquake Activity

City Distance Mag. Time & Date
Minimum magnitude displayed is 2.5.

Coastal Water Temperatures

Place Temperature

Stations

Nearby Weather Stations

Station Location Temp. Windchill Dew Point Humidity Wind Precip. Elev Updated Type
                   

Watches & Warnings

There are currently no watches in effect.